Time;durP1;ratioP1;P1;durP2;ratioP2;P2;SDS_P1;SDS_P2;PMS_P1;PMS_P2;Temp;Humidity;BMP_temperature;BMP_pressure;BME280_temperature;BME280_humidity;BME280_pressure;Samples;Min_cycle;Max_cycle;Signal;HPM_P1;HPM_P2
2023/11/26 00:01:37;;;;;;;16.45;8.35;;;1.20;99.90;;;;;;5006327;28;20052;-52
2023/11/26 00:04:03;;;;;;;14.13;6.88;;;1.20;99.90;;;;;;5005674;28;20056;-53
2023/11/26 00:06:29;;;;;;;12.00;5.15;;;1.30;99.90;;;;;;5004152;28;20060;-51
2023/11/26 00:08:54;;;;;;;12.05;4.57;;;1.20;99.90;;;;;;5005969;28;20201;-52
2023/11/26 00:11:21;;;;;;;11.63;5.25;;;1.20;99.90;;;;;;5006315;28;20462;-51
2023/11/26 00:13:46;;;;;;;9.75;4.75;;;1.20;99.90;;;;;;5005983;28;20026;-52
2023/11/26 00:16:12;;;;;;;8.50;4.88;;;1.20;99.90;;;;;;5005823;28;20029;-51
2023/11/26 00:18:38;;;;;;;9.23;4.82;;;1.20;99.90;;;;;;5005190;28;20437;-52
2023/11/26 00:21:04;;;;;;;10.82;4.90;;;1.20;99.90;;;;;;5005714;28;20475;-52
2023/11/26 00:23:30;;;;;;;7.55;4.45;;;1.20;99.90;;;;;;5004688;28;20034;-52
2023/11/26 00:25:56;;;;;;;9.18;5.20;;;1.10;99.90;;;;;;5005669;28;20075;-52
2023/11/26 00:28:22;;;;;;;9.32;5.00;;;1.10;99.90;;;;;;4997287;28;20364;-54
2023/11/26 00:30:48;;;;;;;9.90;5.35;;;1.10;99.90;;;;;;5005923;28;20117;-52
2023/11/26 00:33:15;;;;;;;8.30;5.15;;;1.10;99.90;;;;;;5005396;28;20104;-51
2023/11/26 00:35:41;;;;;;;6.90;4.40;;;1.10;99.90;;;;;;5005758;28;20026;-51
2023/11/26 00:38:07;;;;;;;9.68;4.72;;;1.10;99.90;;;;;;5005448;28;20026;-52
2023/11/26 00:40:32;;;;;;;9.60;5.10;;;1.10;99.90;;;;;;5024118;28;20500;-51
2023/11/26 00:42:58;;;;;;;10.98;4.85;;;1.10;99.90;;;;;;5021047;28;20030;-52
2023/11/26 00:45:24;;;;;;;13.13;5.20;;;1.10;99.90;;;;;;5004241;28;20023;-53
2023/11/26 00:47:50;;;;;;;14.45;5.80;;;1.10;99.90;;;;;;5004928;28;20022;-53
2023/11/26 00:50:17;;;;;;;10.68;4.55;;;1.10;99.90;;;;;;5005433;28;20045;-51
2023/11/26 00:52:43;;;;;;;10.55;4.80;;;1.10;99.90;;;;;;5005568;28;20486;-51
2023/11/26 00:55:09;;;;;;;10.93;4.35;;;1.10;99.90;;;;;;5005781;28;20022;-53
2023/11/26 00:57:34;;;;;;;11.52;4.28;;;1.10;99.90;;;;;;5005092;28;20037;-53
2023/11/26 01:00:00;;;;;;;8.60;4.35;;;1.10;99.90;;;;;;5005765;28;20030;-53
2023/11/26 01:02:29;;;;;;;7.90;4.85;;;1.10;99.90;;;;;;4989434;28;20026;-53
2023/11/26 01:04:55;;;;;;;11.07;4.47;;;1.10;99.90;;;;;;5021576;28;20022;-55
2023/11/26 01:07:20;;;;;;;8.50;4.40;;;1.10;99.90;;;;;;5003471;28;20030;-54
2023/11/26 01:09:46;;;;;;;8.00;4.57;;;1.10;99.90;;;;;;5003913;28;20560;-56
2023/11/26 01:12:11;;;;;;;7.78;4.95;;;1.10;99.90;;;;;;5005372;28;20483;-55
2023/11/26 01:14:37;;;;;;;13.82;5.00;;;1.00;99.90;;;;;;5005062;28;20070;-56
2023/11/26 01:17:03;;;;;;;8.32;4.70;;;1.00;99.90;;;;;;5004620;28;20405;-56
2023/11/26 01:19:29;;;;;;;9.40;4.72;;;0.90;99.90;;;;;;5005944;28;20030;-55
2023/11/26 01:21:54;;;;;;;9.43;4.72;;;1.00;99.90;;;;;;5008732;28;20395;-56
2023/11/26 01:24:20;;;;;;;6.60;4.88;;;0.90;99.90;;;;;;5008328;28;20034;-55
2023/11/26 01:26:45;;;;;;;8.52;4.20;;;0.90;99.90;;;;;;5008198;28;20026;-55
2023/11/26 01:29:11;;;;;;;9.63;4.47;;;0.80;99.90;;;;;;5008211;28;20026;-55
2023/11/26 01:31:36;;;;;;;6.55;5.05;;;0.80;99.90;;;;;;5008264;28;20093;-55
2023/11/26 01:34:03;;;;;;;10.18;4.68;;;0.80;99.90;;;;;;5008430;28;20079;-55
2023/11/26 01:36:28;;;;;;;8.38;4.30;;;0.80;99.90;;;;;;5009109;28;20108;-54
2023/11/26 01:38:54;;;;;;;8.30;5.00;;;0.70;99.90;;;;;;5008133;28;20657;-55
2023/11/26 01:41:20;;;;;;;9.63;4.65;;;0.70;99.90;;;;;;5006949;28;20034;-54
2023/11/26 01:43:45;;;;;;;11.30;6.07;;;0.70;99.90;;;;;;5008154;28;20037;-55
2023/11/26 01:46:12;;;;;;;11.85;4.93;;;0.70;99.90;;;;;;5007719;28;20034;-55
2023/11/26 01:48:39;;;;;;;10.15;5.55;;;0.60;99.90;;;;;;5007911;28;20026;-55
2023/11/26 01:51:10;;;;;;;8.55;5.50;;;0.70;99.90;;;;;;5008405;28;20018;-55
2023/11/26 01:53:38;;;;;;;9.23;4.93;;;0.60;99.90;;;;;;5008148;28;20048;-55
2023/11/26 01:56:05;;;;;;;11.63;5.03;;;0.60;99.90;;;;;;5007749;28;20071;-55
2023/11/26 01:58:31;;;;;;;12.15;5.00;;;0.60;99.90;;;;;;5007680;28;20026;-56
2023/11/26 02:00:57;;;;;;;9.95;5.30;;;0.50;99.90;;;;;;5007956;28;20705;-55
2023/11/26 02:03:23;;;;;;;8.90;5.40;;;0.50;99.90;;;;;;5008079;28;20530;-56
2023/11/26 02:05:49;;;;;;;14.25;6.10;;;0.50;99.90;;;;;;5007718;28;20030;-55
2023/11/26 02:08:15;;;;;;;9.32;5.07;;;0.50;99.90;;;;;;5007560;28;20018;-54
2023/11/26 02:10:42;;;;;;;11.40;5.38;;;0.50;99.90;;;;;;5008054;28;20110;-54
2023/11/26 02:13:08;;;;;;;8.15;4.40;;;0.40;99.90;;;;;;5008015;28;20022;-55
2023/11/26 02:15:34;;;;;;;13.35;5.97;;;0.40;99.90;;;;;;5008029;28;20453;-55
2023/11/26 02:18:00;;;;;;;17.40;6.25;;;0.40;99.90;;;;;;5007880;28;20026;-55
2023/11/26 02:20:26;;;;;;;11.32;5.13;;;0.40;99.90;;;;;;5008295;28;20048;-54
2023/11/26 02:22:52;;;;;;;21.63;6.07;;;0.40;99.90;;;;;;5008069;28;20109;-55
2023/11/26 02:25:20;;;;;;;10.65;5.78;;;0.30;99.90;;;;;;5007063;28;20446;-55
2023/11/26 02:27:46;;;;;;;9.15;5.55;;;0.30;99.90;;;;;;5006653;28;20033;-55
2023/11/26 02:30:13;;;;;;;11.82;5.75;;;0.30;99.90;;;;;;5006883;28;20471;-54
2023/11/26 02:32:39;;;;;;;11.68;6.22;;;0.30;99.90;;;;;;5007675;28;20026;-54
2023/11/26 02:35:05;;;;;;;9.20;5.65;;;0.20;99.90;;;;;;5007909;28;20029;-53
2023/11/26 02:37:30;;;;;;;10.60;5.65;;;0.20;99.90;;;;;;5007130;28;20037;-53
2023/11/26 02:39:56;;;;;;;10.65;5.57;;;0.20;99.90;;;;;;5008029;28;20030;-55
2023/11/26 02:42:22;;;;;;;9.35;5.75;;;0.20;99.90;;;;;;5007818;28;20037;-55
2023/11/26 02:44:48;;;;;;;8.68;5.43;;;0.20;99.90;;;;;;5007356;28;20070;-54
2023/11/26 02:47:13;;;;;;;11.88;5.20;;;0.10;99.90;;;;;;4998683;28;20058;-54
2023/11/26 02:49:39;;;;;;;18.95;5.28;;;0.10;99.90;;;;;;4991675;28;20093;-55
2023/11/26 02:52:04;;;;;;;15.02;6.15;;;0.10;99.90;;;;;;4987456;28;20018;-54
2023/11/26 02:54:30;;;;;;;8.73;5.35;;;0.10;99.90;;;;;;4986594;28;20371;-54
2023/11/26 02:56:55;;;;;;;15.13;5.88;;;0.10;99.90;;;;;;4987615;28;20429;-54
2023/11/26 02:59:21;;;;;;;13.10;5.78;;;0.10;99.90;;;;;;4987188;28;20054;-54
2023/11/26 03:01:47;;;;;;;13.65;5.40;;;0.10;99.90;;;;;;5000667;28;20026;-55
2023/11/26 03:04:17;;;;;;;9.85;5.57;;;0.00;99.90;;;;;;5006317;28;20406;-55
2023/11/26 03:06:44;;;;;;;12.68;5.43;;;0.00;99.90;;;;;;5006995;28;20371;-54
2023/11/26 03:09:29;;;;;;;11.65;5.68;;;-0.10;99.90;;;;;;5006776;28;20038;-54
2023/11/26 03:14:39;;;;;;;9.57;5.22;;;-0.10;99.90;;;;;;5006908;28;20055;-53
2023/11/26 03:17:05;;;;;;;18.35;6.53;;;-0.10;99.90;;;;;;5006851;28;20483;-51
2023/11/26 03:19:30;;;;;;;15.70;6.63;;;-0.10;99.90;;;;;;5006970;28;20572;-53
2023/11/26 03:21:56;;;;;;;11.40;6.28;;;-0.10;99.90;;;;;;5007029;28;20032;-52
2023/11/26 03:24:22;;;;;;;12.02;6.00;;;-0.10;99.90;;;;;;5006731;28;20112;-52
2023/11/26 03:26:48;;;;;;;14.25;6.35;;;-0.10;99.90;;;;;;5006773;28;20025;-51
2023/11/26 03:29:14;;;;;;;16.35;6.22;;;-0.10;99.90;;;;;;5006756;28;20026;-51
2023/11/26 03:31:41;;;;;;;9.20;5.57;;;-0.10;99.90;;;;;;5005435;28;20045;-51
2023/11/26 03:34:09;;;;;;;11.38;6.03;;;-0.10;99.90;;;;;;5006628;28;20054;-52
2023/11/26 03:36:35;;;;;;;9.50;6.07;;;-0.10;99.90;;;;;;5024945;28;20469;-50
2023/11/26 03:39:02;;;;;;;13.60;6.40;;;-0.10;99.90;;;;;;5002794;28;20078;-50
2023/11/26 03:41:28;;;;;;;10.68;5.97;;;-0.20;99.90;;;;;;5004939;28;20483;-49
2023/11/26 03:43:54;;;;;;;12.82;6.78;;;-0.20;99.90;;;;;;5006464;28;20049;-49
2023/11/26 03:46:20;;;;;;;12.88;6.85;;;-0.20;99.90;;;;;;5005086;28;20514;-51
2023/11/26 03:48:46;;;;;;;14.60;7.03;;;-0.30;99.90;;;;;;5006552;28;20113;-51
2023/11/26 03:51:16;;;;;;;15.68;7.53;;;-0.30;99.90;;;;;;5006306;28;20101;-52
2023/11/26 03:53:41;;;;;;;12.23;7.13;;;-0.30;99.90;;;;;;5005372;28;20061;-49
2023/11/26 03:56:07;;;;;;;16.38;7.55;;;-0.30;99.90;;;;;;5006261;28;20065;-51
2023/11/26 03:58:32;;;;;;;16.38;7.93;;;-0.30;99.90;;;;;;5004628;28;20276;-50
2023/11/26 04:00:58;;;;;;;13.95;7.93;;;-0.30;99.90;;;;;;5006452;28;20038;-52
2023/11/26 04:03:25;;;;;;;15.05;7.85;;;-0.30;99.90;;;;;;5006433;28;20045;-52
2023/11/26 04:05:50;;;;;;;18.70;8.55;;;-0.30;99.90;;;;;;5005955;28;20022;-51
2023/11/26 04:08:16;;;;;;;14.95;8.00;;;-0.30;99.90;;;;;;5005861;28;20107;-50
2023/11/26 04:10:41;;;;;;;15.38;8.70;;;-0.30;99.90;;;;;;5006465;28;20033;-52
2023/11/26 04:13:07;;;;;;;13.23;8.30;;;-0.30;99.90;;;;;;4998150;28;20027;-51
2023/11/26 04:15:33;;;;;;;20.13;8.55;;;-0.30;99.90;;;;;;5005974;28;20071;-52
2023/11/26 04:17:58;;;;;;;14.48;8.18;;;-0.30;99.90;;;;;;5005617;28;20030;-51
2023/11/26 04:20:26;;;;;;;15.27;9.35;;;-0.30;99.90;;;;;;5006191;28;20037;-52
2023/11/26 04:22:52;;;;;;;14.02;8.10;;;-0.30;99.90;;;;;;5005866;28;20022;-51
2023/11/26 04:25:17;;;;;;;15.65;8.18;;;-0.40;99.90;;;;;;5005731;28;20501;-51
2023/11/26 04:27:43;;;;;;;17.35;9.30;;;-0.40;99.90;;;;;;5005713;28;20087;-51
2023/11/26 04:30:09;;;;;;;17.60;9.00;;;-0.40;99.90;;;;;;5005912;28;20033;-52
2023/11/26 04:32:35;;;;;;;25.13;10.30;;;-0.30;99.90;;;;;;5013652;28;20476;-53
2023/11/26 04:35:00;;;;;;;17.17;9.70;;;-0.40;99.90;;;;;;5004837;28;20203;-52
2023/11/26 04:37:27;;;;;;;14.65;9.05;;;-0.40;99.90;;;;;;5005210;28;20026;-51
2023/11/26 04:39:52;;;;;;;16.80;8.90;;;-0.40;99.90;;;;;;5005926;28;20474;-52
2023/11/26 04:42:18;;;;;;;14.77;9.20;;;-0.40;99.90;;;;;;5005615;28;20054;-52
2023/11/26 04:44:43;;;;;;;20.92;9.65;;;-0.40;99.90;;;;;;5005539;28;20022;-52
2023/11/26 04:47:09;;;;;;;15.18;9.07;;;-0.40;99.90;;;;;;5005167;28;20071;-52
2023/11/26 04:49:34;;;;;;;18.42;9.68;;;-0.40;99.90;;;;;;5004148;28;20056;-49
2023/11/26 04:52:00;;;;;;;19.08;11.07;;;-0.40;99.90;;;;;;5005605;28;20086;-51
2023/11/26 04:54:28;;;;;;;22.02;11.05;;;-0.40;99.90;;;;;;5042376;28;20030;-52
2023/11/26 04:56:54;;;;;;;15.15;9.57;;;-0.50;99.90;;;;;;5008812;28;20116;-52
2023/11/26 04:59:19;;;;;;;24.98;10.73;;;-0.40;99.90;;;;;;5009020;28;20097;-51
2023/11/26 05:01:48;;;;;;;19.58;11.00;;;-0.40;99.90;;;;;;5009252;28;20042;-52
2023/11/26 05:04:15;;;;;;;17.55;10.65;;;-0.50;99.90;;;;;;5008725;28;20030;-52
2023/11/26 05:06:42;;;;;;;20.52;10.02;;;-0.50;99.90;;;;;;5007868;28;20444;-52
2023/11/26 05:09:11;;;;;;;19.40;10.73;;;-0.50;99.90;;;;;;5009028;28;20022;-52
2023/11/26 05:11:38;;;;;;;15.77;8.75;;;-0.50;99.90;;;;;;5009027;28;20022;-50
2023/11/26 05:14:04;;;;;;;24.02;10.65;;;-0.50;99.90;;;;;;5008916;28;20425;-52
2023/11/26 05:16:29;;;;;;;21.45;10.90;;;-0.50;99.90;;;;;;5008729;28;20038;-52
2023/11/26 05:18:55;;;;;;;22.88;11.85;;;-0.50;99.90;;;;;;5008462;28;20033;-50
2023/11/26 05:21:20;;;;;;;24.80;12.52;;;-0.50;99.90;;;;;;5008294;28;20030;-50
2023/11/26 05:23:46;;;;;;;17.45;9.55;;;-0.50;99.90;;;;;;5008553;28;20029;-52
2023/11/26 05:26:13;;;;;;;17.50;9.80;;;-0.50;99.90;;;;;;5008647;28;20121;-52
2023/11/26 05:28:39;;;;;;;20.30;11.88;;;-0.50;99.90;;;;;;5008351;28;20033;-50
2023/11/26 05:31:05;;;;;;;19.38;10.25;;;-0.50;99.90;;;;;;5007154;28;20018;-49
2023/11/26 05:33:30;;;;;;;23.23;10.95;;;-0.50;99.90;;;;;;5008662;28;20030;-50
2023/11/26 05:35:56;;;;;;;20.88;9.85;;;-0.50;99.90;;;;;;5008574;28;20025;-52
2023/11/26 05:38:22;;;;;;;20.60;11.00;;;-0.60;99.90;;;;;;5008372;28;20604;-50
2023/11/26 05:40:48;;;;;;;19.85;10.35;;;-0.50;99.90;;;;;;5008254;28;20045;-51
2023/11/26 05:43:13;;;;;;;16.13;9.82;;;-0.50;99.90;;;;;;5002926;28;20032;-50
2023/11/26 05:45:39;;;;;;;16.00;10.20;;;-0.50;99.90;;;;;;5001994;28;20109;-52
2023/11/26 05:48:06;;;;;;;20.70;10.20;;;-0.50;99.90;;;;;;5007967;28;20495;-51
2023/11/26 05:50:32;;;;;;;19.90;11.43;;;-0.50;99.90;;;;;;5002044;28;20405;-51
2023/11/26 05:52:57;;;;;;;21.17;10.73;;;-0.50;99.90;;;;;;5004993;28;20026;-50
2023/11/26 05:55:23;;;;;;;17.63;10.40;;;-0.50;99.90;;;;;;5000711;28;20032;-51
2023/11/26 05:57:49;;;;;;;24.30;11.10;;;-0.50;99.90;;;;;;5007934;28;20036;-51
2023/11/26 06:00:15;;;;;;;21.08;10.70;;;-0.50;99.90;;;;;;5008314;28;20105;-50
2023/11/26 06:02:41;;;;;;;18.15;10.35;;;-0.50;99.90;;;;;;5008069;28;20083;-51
2023/11/26 06:05:10;;;;;;;17.73;10.60;;;-0.40;99.90;;;;;;5007235;28;20026;-51
2023/11/26 06:07:36;;;;;;;26.50;10.90;;;-0.40;99.90;;;;;;5007623;28;20079;-53
2023/11/26 06:10:01;;;;;;;14.70;10.10;;;-0.30;99.90;;;;;;5007925;28;20449;-52
2023/11/26 06:12:27;;;;;;;17.05;9.38;;;-0.30;99.90;;;;;;5008030;28;20022;-52
2023/11/26 06:14:52;;;;;;;19.13;10.77;;;-0.40;99.90;;;;;;5007820;28;20058;-54
2023/11/26 06:17:18;;;;;;;21.13;9.68;;;-0.30;99.90;;;;;;5006169;28;20034;-54
2023/11/26 06:19:43;;;;;;;19.90;9.27;;;-0.30;99.90;;;;;;5004124;28;20042;-54
2023/11/26 06:22:09;;;;;;;16.48;10.63;;;-0.20;99.90;;;;;;4992335;28;20125;-53
2023/11/26 06:24:34;;;;;;;13.65;9.32;;;-0.20;99.90;;;;;;4990443;28;20023;-52
2023/11/26 06:27:00;;;;;;;18.45;10.15;;;-0.20;99.90;;;;;;4988639;28;20027;-52
2023/11/26 06:29:26;;;;;;;19.83;9.48;;;-0.10;99.90;;;;;;4987769;28;20022;-53
2023/11/26 06:31:51;;;;;;;13.95;9.07;;;-0.10;99.90;;;;;;5003485;28;20071;-53
2023/11/26 06:34:19;;;;;;;15.77;9.98;;;-0.10;99.90;;;;;;5007443;28;20033;-53
2023/11/26 06:36:44;;;;;;;17.48;9.90;;;-0.10;99.90;;;;;;5007113;28;20063;-53
2023/11/26 06:39:10;;;;;;;19.10;9.98;;;-0.10;99.90;;;;;;5007117;28;20030;-52
2023/11/26 06:41:40;;;;;;;18.83;9.68;;;-0.10;99.90;;;;;;5007834;28;20030;-52
2023/11/26 06:44:06;;;;;;;12.53;8.90;;;-0.10;99.90;;;;;;5007485;28;20064;-52
2023/11/26 06:46:32;;;;;;;19.20;10.30;;;-0.10;99.90;;;;;;5007566;28;20045;-52
2023/11/26 06:48:58;;;;;;;19.85;10.85;;;-0.10;99.90;;;;;;5005933;28;20022;-52
2023/11/26 06:51:23;;;;;;;22.10;10.38;;;-0.10;99.90;;;;;;5007554;28;20026;-51
2023/11/26 06:53:50;;;;;;;21.10;10.65;;;0.00;99.90;;;;;;5007362;28;20075;-51
2023/11/26 06:56:16;;;;;;;26.23;14.27;;;0.00;99.90;;;;;;5007342;28;20095;-51
2023/11/26 06:58:43;;;;;;;15.98;10.20;;;0.00;99.90;;;;;;5006856;28;20053;-53
2023/11/26 07:01:10;;;;;;;22.58;10.35;;;0.00;99.90;;;;;;4993246;28;20439;-53
2023/11/26 07:03:36;;;;;;;16.45;9.48;;;0.00;99.90;;;;;;4990226;28;20038;-52
2023/11/26 07:06:05;;;;;;;19.63;10.88;;;0.00;99.90;;;;;;4990921;28;20152;-54
2023/11/26 07:08:33;;;;;;;16.23;9.88;;;0.10;99.90;;;;;;5000882;28;20341;-53
2023/11/26 07:10:59;;;;;;;17.35;9.50;;;0.10;99.90;;;;;;5007714;28;20109;-52
2023/11/26 07:13:28;;;;;;;19.08;10.65;;;0.20;99.90;;;;;;5006738;28;20057;-54
2023/11/26 07:15:54;;;;;;;19.83;10.20;;;0.20;99.90;;;;;;5020501;28;20104;-52
2023/11/26 07:18:20;;;;;;;19.63;9.85;;;0.20;99.90;;;;;;5008981;28;20068;-52
2023/11/26 07:20:46;;;;;;;19.05;9.85;;;0.30;99.90;;;;;;5007237;28;20519;-52
2023/11/26 07:23:12;;;;;;;16.98;8.63;;;0.30;99.90;;;;;;5006923;28;20034;-55
2023/11/26 07:25:39;;;;;;;15.25;9.18;;;0.30;99.90;;;;;;5006676;28;20097;-53
2023/11/26 07:28:08;;;;;;;16.58;8.82;;;0.40;99.90;;;;;;5006222;28;20478;-53
2023/11/26 07:30:42;;;;;;;13.73;7.88;;;0.40;99.90;;;;;;5006982;28;20498;-53
2023/11/26 07:33:08;;;;;;;12.10;7.00;;;0.40;99.90;;;;;;5006894;28;20026;-52
2023/11/26 07:35:34;;;;;;;12.23;7.22;;;0.40;99.90;;;;;;5006781;28;20163;-53
2023/11/26 07:38:01;;;;;;;14.18;7.25;;;0.40;99.90;;;;;;5006215;28;20049;-53
2023/11/26 07:40:28;;;;;;;11.52;6.70;;;0.50;99.90;;;;;;5006602;28;20529;-53
2023/11/26 07:42:54;;;;;;;11.27;7.57;;;0.50;99.90;;;;;;5006718;28;20034;-53
2023/11/26 07:45:20;;;;;;;14.60;7.47;;;0.60;99.90;;;;;;5006229;28;20044;-52
2023/11/26 07:47:46;;;;;;;13.40;7.35;;;0.60;99.90;;;;;;5006130;28;20033;-52
2023/11/26 07:50:11;;;;;;;12.23;7.38;;;0.60;99.90;;;;;;5006400;28;20479;-52
2023/11/26 07:52:37;;;;;;;12.73;7.03;;;0.60;99.90;;;;;;5006721;28;20341;-52
2023/11/26 07:55:04;;;;;;;11.57;7.32;;;0.70;99.90;;;;;;5006347;28;20087;-53
2023/11/26 07:57:31;;;;;;;12.95;7.10;;;0.70;99.90;;;;;;5005778;28;20117;-52
2023/11/26 07:59:57;;;;;;;13.45;7.20;;;0.70;99.90;;;;;;5006461;28;20079;-53
2023/11/26 08:02:23;;;;;;;12.57;6.53;;;0.70;99.90;;;;;;5004850;28;20117;-54
2023/11/26 08:04:53;;;;;;;14.95;6.78;;;0.70;99.90;;;;;;5006401;28;20037;-53
2023/11/26 08:07:26;;;;;;;13.35;7.68;;;0.60;99.90;;;;;;5006240;28;20467;-53
2023/11/26 08:09:52;;;;;;;13.50;7.38;;;0.70;99.90;;;;;;5006280;28;20033;-52
2023/11/26 08:12:20;;;;;;;13.98;7.22;;;0.70;99.90;;;;;;5006472;28;20025;-52
2023/11/26 08:14:47;;;;;;;12.55;7.60;;;0.80;99.90;;;;;;5005383;28;20051;-53
2023/11/26 08:17:15;;;;;;;12.98;8.25;;;0.80;99.90;;;;;;5004168;28;20033;-53
2023/11/26 08:19:41;;;;;;;16.10;9.38;;;0.90;99.90;;;;;;5005890;28;20094;-51
